sensor_id;sensor_type;location;lat;lon;timestamp;pressure;altitude;pressure_sealevel;temperature;humidity
76229;BME280;65021;53.174;18.160;2023-05-01T00:01:39;101849.02;;;0.13;77.96
76229;BME280;65021;53.174;18.160;2023-05-01T00:04:05;101845.19;;;0.04;77.25
76229;BME280;65021;53.174;18.160;2023-05-01T00:06:32;101843.73;;;-0.05;76.79
76229;BME280;65021;53.174;18.160;2023-05-01T00:08:59;101842.80;;;-0.14;77.55
76229;BME280;65021;53.174;18.160;2023-05-01T00:11:26;101850.85;;;-0.18;78.17
76229;BME280;65021;53.174;18.160;2023-05-01T00:13:52;101853.24;;;-0.15;79.03
76229;BME280;65021;53.174;18.160;2023-05-01T00:16:19;101846.50;;;-0.11;79.49
76229;BME280;65021;53.174;18.160;2023-05-01T00:18:49;101843.58;;;-0.09;79.19
76229;BME280;65021;53.174;18.160;2023-05-01T00:21:15;101840.88;;;-0.08;78.85
76229;BME280;65021;53.174;18.160;2023-05-01T00:23:42;101845.34;;;-0.03;79.27
76229;BME280;65021;53.174;18.160;2023-05-01T00:26:09;101844.35;;;-0.00;78.80
76229;BME280;65021;53.174;18.160;2023-05-01T00:28:35;101846.41;;;0.01;78.65
76229;BME280;65021;53.174;18.160;2023-05-01T00:31:02;101845.48;;;-0.01;79.10
76229;BME280;65021;53.174;18.160;2023-05-01T00:33:29;101843.26;;;-0.06;79.86
76229;BME280;65021;53.174;18.160;2023-05-01T00:35:55;101842.10;;;-0.13;80.71
76229;BME280;65021;53.174;18.160;2023-05-01T00:38:22;101844.14;;;-0.18;80.92
76229;BME280;65021;53.174;18.160;2023-05-01T00:40:49;101847.39;;;-0.24;81.02
76229;BME280;65021;53.174;18.160;2023-05-01T00:43:16;101844.79;;;-0.28;80.38
76229;BME280;65021;53.174;18.160;2023-05-01T00:45:44;101843.06;;;-0.33;80.90
76229;BME280;65021;53.174;18.160;2023-05-01T00:48:12;101845.23;;;-0.38;81.34
76229;BME280;65021;53.174;18.160;2023-05-01T00:50:39;101840.71;;;-0.44;81.11
76229;BME280;65021;53.174;18.160;2023-05-01T00:53:06;101837.27;;;-0.53;81.06
76229;BME280;65021;53.174;18.160;2023-05-01T00:55:33;101837.91;;;-0.58;81.25
76229;BME280;65021;53.174;18.160;2023-05-01T00:58:01;101842.05;;;-0.61;81.64
76229;BME280;65021;53.174;18.160;2023-05-01T01:00:28;101843.34;;;-0.66;81.84
76229;BME280;65021;53.174;18.160;2023-05-01T01:02:55;101842.78;;;-0.71;82.02
76229;BME280;65021;53.174;18.160;2023-05-01T01:05:24;101840.65;;;-0.77;81.78
76229;BME280;65021;53.174;18.160;2023-05-01T01:13:38;101843.22;;;-0.66;81.99
76229;BME280;65021;53.174;18.160;2023-05-01T01:19:00;101842.85;;;-0.68;79.28
76229;BME280;65021;53.174;18.160;2023-05-01T01:21:42;101836.79;;;-0.77;80.35
76229;BME280;65021;53.174;18.160;2023-05-01T01:34:46;101845.71;;;-0.90;81.32
76229;BME280;65021;53.174;18.160;2023-05-01T01:37:29;101839.94;;;-0.92;82.68
76229;BME280;65021;53.174;18.160;2023-05-01T01:40:05;101836.47;;;-0.94;83.75
76229;BME280;65021;53.174;18.160;2023-05-01T01:42:45;101838.42;;;-0.97;83.90
76229;BME280;65021;53.174;18.160;2023-05-01T01:45:20;101836.84;;;-0.96;84.28
76229;BME280;65021;53.174;18.160;2023-05-01T01:47:50;101833.27;;;-0.99;83.92
76229;BME280;65021;53.174;18.160;2023-05-01T01:50:19;101834.56;;;-1.02;82.29
76229;BME280;65021;53.174;18.160;2023-05-01T01:52:48;101834.08;;;-1.03;80.88
76229;BME280;65021;53.174;18.160;2023-05-01T01:55:16;101829.20;;;-1.05;79.85
76229;BME280;65021;53.174;18.160;2023-05-01T01:57:47;101828.67;;;-1.08;79.45
76229;BME280;65021;53.174;18.160;2023-05-01T02:00:16;101824.63;;;-1.11;80.96
76229;BME280;65021;53.174;18.160;2023-05-01T02:02:45;101821.42;;;-1.15;81.54
76229;BME280;65021;53.174;18.160;2023-05-01T02:05:15;101819.04;;;-1.19;81.75
76229;BME280;65021;53.174;18.160;2023-05-01T02:07:45;101818.02;;;-1.17;83.02
76229;BME280;65021;53.174;18.160;2023-05-01T02:10:13;101814.48;;;-1.18;83.38
76229;BME280;65021;53.174;18.160;2023-05-01T02:12:45;101815.84;;;-1.18;83.75
76229;BME280;65021;53.174;18.160;2023-05-01T02:15:15;101813.98;;;-1.15;84.24
76229;BME280;65021;53.174;18.160;2023-05-01T02:17:43;101811.46;;;-1.16;84.64
76229;BME280;65021;53.174;18.160;2023-05-01T02:20:11;101806.44;;;-1.16;84.81
76229;BME280;65021;53.174;18.160;2023-05-01T02:22:39;101806.23;;;-1.16;84.93
76229;BME280;65021;53.174;18.160;2023-05-01T02:25:09;101803.61;;;-1.15;85.10
76229;BME280;65021;53.174;18.160;2023-05-01T02:27:39;101799.60;;;-1.15;84.91
76229;BME280;65021;53.174;18.160;2023-05-01T02:30:10;101804.61;;;-1.16;84.69
76229;BME280;65021;53.174;18.160;2023-05-01T02:32:37;101803.34;;;-1.18;84.65
76229;BME280;65021;53.174;18.160;2023-05-01T02:35:04;101795.71;;;-1.20;84.41
76229;BME280;65021;53.174;18.160;2023-05-01T02:37:31;101796.58;;;-1.21;84.10
76229;BME280;65021;53.174;18.160;2023-05-01T02:39:58;101793.38;;;-1.26;83.69
76229;BME280;65021;53.174;18.160;2023-05-01T02:42:25;101798.58;;;-1.31;83.59
76229;BME280;65021;53.174;18.160;2023-05-01T02:44:56;101797.01;;;-1.34;83.82
76229;BME280;65021;53.174;18.160;2023-05-01T02:47:23;101790.73;;;-1.39;84.05
76229;BME280;65021;53.174;18.160;2023-05-01T02:49:53;101790.84;;;-1.44;83.90
76229;BME280;65021;53.174;18.160;2023-05-01T02:52:20;101784.48;;;-1.48;84.08
76229;BME280;65021;53.174;18.160;2023-05-01T02:54:48;101786.36;;;-1.52;84.09
76229;BME280;65021;53.174;18.160;2023-05-01T02:57:16;101787.49;;;-1.55;84.64
76229;BME280;65021;53.174;18.160;2023-05-01T02:59:43;101784.01;;;-1.54;85.09
76229;BME280;65021;53.174;18.160;2023-05-01T03:02:10;101786.39;;;-1.52;84.98
76229;BME280;65021;53.174;18.160;2023-05-01T03:04:37;101783.55;;;-1.49;84.50
76229;BME280;65021;53.174;18.160;2023-05-01T03:07:07;101786.48;;;-1.45;84.95
76229;BME280;65021;53.174;18.160;2023-05-01T03:09:34;101785.21;;;-1.44;85.36
76229;BME280;65021;53.174;18.160;2023-05-01T03:12:01;101783.47;;;-1.42;85.00
76229;BME280;65021;53.174;18.160;2023-05-01T03:14:28;101782.58;;;-1.43;84.96
76229;BME280;65021;53.174;18.160;2023-05-01T03:16:55;101783.20;;;-1.43;84.25
76229;BME280;65021;53.174;18.160;2023-05-01T03:19:24;101778.70;;;-1.44;84.00
76229;BME280;65021;53.174;18.160;2023-05-01T03:21:51;101780.88;;;-1.44;83.95
76229;BME280;65021;53.174;18.160;2023-05-01T03:24:20;101776.88;;;-1.44;84.36
76229;BME280;65021;53.174;18.160;2023-05-01T03:26:47;101773.54;;;-1.43;83.62
76229;BME280;65021;53.174;18.160;2023-05-01T03:29:14;101773.75;;;-1.38;83.51
76229;BME280;65021;53.174;18.160;2023-05-01T03:31:40;101770.61;;;-1.28;83.67
76229;BME280;65021;53.174;18.160;2023-05-01T03:34:07;101768.90;;;-1.14;83.34
76229;BME280;65021;53.174;18.160;2023-05-01T03:36:33;101773.34;;;-0.98;83.43
76229;BME280;65021;53.174;18.160;2023-05-01T03:39:04;101767.89;;;-0.83;83.24
76229;BME280;65021;53.174;18.160;2023-05-01T03:41:33;101767.33;;;-0.70;82.90
76229;BME280;65021;53.174;18.160;2023-05-01T03:44:00;101765.17;;;-0.54;82.88
76229;BME280;65021;53.174;18.160;2023-05-01T03:46:27;101770.10;;;-0.35;82.36
76229;BME280;65021;53.174;18.160;2023-05-01T03:48:53;101762.23;;;-0.21;81.64
76229;BME280;65021;53.174;18.160;2023-05-01T03:51:20;101763.79;;;-0.07;81.21
76229;BME280;65021;53.174;18.160;2023-05-01T03:53:47;101765.10;;;0.09;80.89
76229;BME280;65021;53.174;18.160;2023-05-01T03:56:14;101768.40;;;0.28;80.15
76229;BME280;65021;53.174;18.160;2023-05-01T03:58:41;101767.08;;;0.46;79.62
76229;BME280;65021;53.174;18.160;2023-05-01T04:01:08;101763.41;;;0.64;79.15
76229;BME280;65021;53.174;18.160;2023-05-01T04:03:34;101762.96;;;0.81;78.62
76229;BME280;65021;53.174;18.160;2023-05-01T04:06:01;101762.28;;;0.97;78.30
76229;BME280;65021;53.174;18.160;2023-05-01T04:08:28;101763.23;;;1.21;77.99
76229;BME280;65021;53.174;18.160;2023-05-01T04:10:55;101763.07;;;1.46;77.61
76229;BME280;65021;53.174;18.160;2023-05-01T04:13:21;101771.23;;;1.77;77.18
76229;BME280;65021;53.174;18.160;2023-05-01T04:15:48;101768.41;;;2.10;76.47
76229;BME280;65021;53.174;18.160;2023-05-01T04:18:15;101765.21;;;2.35;76.01
76229;BME280;65021;53.174;18.160;2023-05-01T04:20:41;101762.67;;;2.63;75.70
76229;BME280;65021;53.174;18.160;2023-05-01T04:23:08;101759.13;;;2.93;75.49
76229;BME280;65021;53.174;18.160;2023-05-01T04:25:35;101756.30;;;3.31;75.38
76229;BME280;65021;53.174;18.160;2023-05-01T04:28:02;101757.30;;;3.66;74.85
76229;BME280;65021;53.174;18.160;2023-05-01T04:30:30;101755.04;;;3.97;74.50
76229;BME280;65021;53.174;18.160;2023-05-01T04:32:59;101754.52;;;4.22;74.23
76229;BME280;65021;53.174;18.160;2023-05-01T04:35:27;101756.52;;;4.44;73.70
76229;BME280;65021;53.174;18.160;2023-05-01T04:38:01;101755.88;;;4.68;73.36
76229;BME280;65021;53.174;18.160;2023-05-01T04:40:27;101753.86;;;4.90;72.86
76229;BME280;65021;53.174;18.160;2023-05-01T04:42:54;101756.12;;;5.15;72.80
76229;BME280;65021;53.174;18.160;2023-05-01T04:45:21;101756.14;;;5.38;72.51
76229;BME280;65021;53.174;18.160;2023-05-01T04:47:48;101751.23;;;5.59;72.53
76229;BME280;65021;53.174;18.160;2023-05-01T04:50:15;101753.17;;;5.75;72.60
76229;BME280;65021;53.174;18.160;2023-05-01T04:52:41;101755.38;;;5.97;72.44
76229;BME280;65021;53.174;18.160;2023-05-01T04:55:08;101750.80;;;6.22;72.02
76229;BME280;65021;53.174;18.160;2023-05-01T04:57:35;101748.84;;;6.42;71.04
76229;BME280;65021;53.174;18.160;2023-05-01T05:00:02;101746.47;;;6.59;70.63
76229;BME280;65021;53.174;18.160;2023-05-01T05:02:29;101747.55;;;6.82;71.02
76229;BME280;65021;53.174;18.160;2023-05-01T05:04:55;101739.50;;;7.07;70.28
76229;BME280;65021;53.174;18.160;2023-05-01T05:07:23;101742.27;;;7.36;70.20
76229;BME280;65021;53.174;18.160;2023-05-01T05:09:49;101737.89;;;7.67;70.27
76229;BME280;65021;53.174;18.160;2023-05-01T05:12:16;101736.82;;;7.97;69.96
76229;BME280;65021;53.174;18.160;2023-05-01T05:14:42;101731.59;;;8.18;69.19
76229;BME280;65021;53.174;18.160;2023-05-01T05:17:09;101730.70;;;8.34;68.67
76229;BME280;65021;53.174;18.160;2023-05-01T05:19:35;101728.44;;;8.49;68.60
76229;BME280;65021;53.174;18.160;2023-05-01T05:22:02;101729.28;;;8.68;68.17
76229;BME280;65021;53.174;18.160;2023-05-01T05:24:29;101730.45;;;8.80;67.71
76229;BME280;65021;53.174;18.160;2023-05-01T05:26:56;101733.22;;;9.01;67.56
76229;BME280;65021;53.174;18.160;2023-05-01T05:29:23;101731.76;;;9.23;67.39
76229;BME280;65021;53.174;18.160;2023-05-01T05:31:49;101731.58;;;9.38;66.44
76229;BME280;65021;53.174;18.160;2023-05-01T05:34:16;101723.91;;;9.51;65.70
76229;BME280;65021;53.174;18.160;2023-05-01T05:36:43;101723.13;;;9.61;65.64
76229;BME280;65021;53.174;18.160;2023-05-01T05:39:10;101725.58;;;9.71;65.71
76229;BME280;65021;53.174;18.160;2023-05-01T05:41:38;101722.73;;;9.85;65.08
76229;BME280;65021;53.174;18.160;2023-05-01T05:44:04;101722.06;;;9.92;64.32
76229;BME280;65021;53.174;18.160;2023-05-01T05:46:31;101723.99;;;10.02;63.96
76229;BME280;65021;53.174;18.160;2023-05-01T05:48:58;101721.36;;;10.17;63.93
76229;BME280;65021;53.174;18.160;2023-05-01T05:51:25;101720.86;;;10.32;64.44
76229;BME280;65021;53.174;18.160;2023-05-01T05:53:51;101717.15;;;10.54;63.56
76229;BME280;65021;53.174;18.160;2023-05-01T05:56:18;101718.13;;;10.67;62.04
76229;BME280;65021;53.174;18.160;2023-05-01T05:58:45;101718.45;;;10.78;61.73
76229;BME280;65021;53.174;18.160;2023-05-01T06:01:11;101718.62;;;10.89;61.50
76229;BME280;65021;53.174;18.160;2023-05-01T06:03:38;101707.98;;;11.03;62.36
76229;BME280;65021;53.174;18.160;2023-05-01T06:06:05;101710.70;;;11.12;61.21
76229;BME280;65021;53.174;18.160;2023-05-01T06:08:31;101715.70;;;11.22;61.27
76229;BME280;65021;53.174;18.160;2023-05-01T06:11:00;101716.38;;;11.24;60.84
76229;BME280;65021;53.174;18.160;2023-05-01T06:13:27;101715.69;;;11.29;60.76
76229;BME280;65021;53.174;18.160;2023-05-01T06:15:54;101715.09;;;11.39;60.21
76229;BME280;65021;53.174;18.160;2023-05-01T06:18:20;101713.15;;;11.48;58.42
76229;BME280;65021;53.174;18.160;2023-05-01T06:20:47;101711.61;;;11.55;58.04
76229;BME280;65021;53.174;18.160;2023-05-01T06:23:14;101712.13;;;11.68;58.66
76229;BME280;65021;53.174;18.160;2023-05-01T06:25:41;101710.02;;;11.79;58.80
76229;BME280;65021;53.174;18.160;2023-05-01T06:28:08;101708.42;;;11.95;58.56
76229;BME280;65021;53.174;18.160;2023-05-01T06:30:35;101708.35;;;12.11;58.78
76229;BME280;65021;53.174;18.160;2023-05-01T06:33:01;101710.29;;;12.39;59.04
76229;BME280;65021;53.174;18.160;2023-05-01T06:35:28;101709.82;;;12.55;56.30
76229;BME280;65021;53.174;18.160;2023-05-01T06:37:54;101709.52;;;12.69;56.99
76229;BME280;65021;53.174;18.160;2023-05-01T06:40:21;101703.90;;;12.94;54.69
76229;BME280;65021;53.174;18.160;2023-05-01T06:42:48;101700.77;;;13.37;54.53
76229;BME280;65021;53.174;18.160;2023-05-01T06:45:15;101702.75;;;14.00;54.63
76229;BME280;65021;53.174;18.160;2023-05-01T06:47:41;101696.27;;;14.41;52.46
76229;BME280;65021;53.174;18.160;2023-05-01T06:50:09;101697.48;;;14.30;52.93
76229;BME280;65021;53.174;18.160;2023-05-01T06:52:36;101698.45;;;14.07;51.79
76229;BME280;65021;53.174;18.160;2023-05-01T06:55:03;101697.33;;;13.86;51.13
76229;BME280;65021;53.174;18.160;2023-05-01T06:57:29;101692.38;;;13.66;51.48
76229;BME280;65021;53.174;18.160;2023-05-01T06:59:56;101696.91;;;13.52;53.22
76229;BME280;65021;53.174;18.160;2023-05-01T07:02:23;101692.08;;;13.53;53.68
76229;BME280;65021;53.174;18.160;2023-05-01T07:04:50;101691.19;;;13.58;51.59
76229;BME280;65021;53.174;18.160;2023-05-01T07:07:16;101688.52;;;13.63;52.40
76229;BME280;65021;53.174;18.160;2023-05-01T07:09:43;101686.29;;;13.66;51.76
76229;BME280;65021;53.174;18.160;2023-05-01T07:12:13;101684.38;;;13.65;51.24
76229;BME280;65021;53.174;18.160;2023-05-01T07:14:40;101684.63;;;13.67;51.09
76229;BME280;65021;53.174;18.160;2023-05-01T07:17:07;101678.61;;;13.62;51.23
76229;BME280;65021;53.174;18.160;2023-05-01T07:19:34;101676.04;;;13.58;49.88
76229;BME280;65021;53.174;18.160;2023-05-01T07:22:01;101676.58;;;13.52;49.81
76229;BME280;65021;53.174;18.160;2023-05-01T07:24:28;101672.64;;;13.53;51.00
76229;BME280;65021;53.174;18.160;2023-05-01T07:26:55;101676.16;;;13.58;50.00
76229;BME280;65021;53.174;18.160;2023-05-01T07:29:21;101669.29;;;13.49;49.63
76229;BME280;65021;53.174;18.160;2023-05-01T07:31:48;101671.21;;;13.50;50.49
76229;BME280;65021;53.174;18.160;2023-05-01T07:34:14;101673.41;;;13.56;50.60
76229;BME280;65021;53.174;18.160;2023-05-01T07:36:43;101674.94;;;13.66;50.77
76229;BME280;65021;53.174;18.160;2023-05-01T07:39:10;101670.05;;;13.74;50.52
76229;BME280;65021;53.174;18.160;2023-05-01T07:41:37;101671.81;;;13.78;50.39
76229;BME280;65021;53.174;18.160;2023-05-01T07:44:03;101670.50;;;13.84;49.75
76229;BME280;65021;53.174;18.160;2023-05-01T07:46:30;101670.12;;;13.93;49.96
76229;BME280;65021;53.174;18.160;2023-05-01T07:48:57;101666.61;;;14.01;49.07
76229;BME280;65021;53.174;18.160;2023-05-01T07:51:23;101662.96;;;14.00;48.38
76229;BME280;65021;53.174;18.160;2023-05-01T07:53:50;101663.81;;;14.01;49.24
76229;BME280;65021;53.174;18.160;2023-05-01T07:56:16;101661.27;;;14.07;48.75
76229;BME280;65021;53.174;18.160;2023-05-01T07:58:43;101658.23;;;14.06;48.47
76229;BME280;65021;53.174;18.160;2023-05-01T08:01:10;101656.50;;;14.09;48.10
76229;BME280;65021;53.174;18.160;2023-05-01T08:03:36;101655.05;;;14.15;47.78
76229;BME280;65021;53.174;18.160;2023-05-01T08:06:04;101657.27;;;14.19;47.67
76229;BME280;65021;53.174;18.160;2023-05-01T08:08:31;101656.02;;;14.27;48.17
76229;BME280;65021;53.174;18.160;2023-05-01T08:10:57;101652.60;;;14.26;47.13
76229;BME280;65021;53.174;18.160;2023-05-01T08:13:24;101650.15;;;14.24;47.01
76229;BME280;65021;53.174;18.160;2023-05-01T08:15:50;101652.83;;;14.30;47.23
76229;BME280;65021;53.174;18.160;2023-05-01T08:18:17;101646.74;;;14.39;46.82
76229;BME280;65021;53.174;18.160;2023-05-01T08:20:47;101645.10;;;14.44;46.04
76229;BME280;65021;53.174;18.160;2023-05-01T08:23:16;101641.67;;;14.43;46.64
76229;BME280;65021;53.174;18.160;2023-05-01T08:25:43;101639.39;;;14.38;46.10
76229;BME280;65021;53.174;18.160;2023-05-01T08:28:13;101636.32;;;14.41;46.58
76229;BME280;65021;53.174;18.160;2023-05-01T08:30:40;101633.08;;;14.48;45.96
76229;BME280;65021;53.174;18.160;2023-05-01T08:33:07;101635.48;;;14.53;45.91
76229;BME280;65021;53.174;18.160;2023-05-01T08:35:33;101625.11;;;14.64;45.51
76229;BME280;65021;53.174;18.160;2023-05-01T08:38:00;101619.56;;;14.64;45.21
76229;BME280;65021;53.174;18.160;2023-05-01T08:40:30;101621.16;;;14.65;45.07
76229;BME280;65021;53.174;18.160;2023-05-01T08:42:59;101617.91;;;14.65;44.71
76229;BME280;65021;53.174;18.160;2023-05-01T08:45:26;101616.98;;;14.66;44.51
76229;BME280;65021;53.174;18.160;2023-05-01T08:47:54;101609.73;;;14.64;42.71
76229;BME280;65021;53.174;18.160;2023-05-01T08:50:21;101608.37;;;14.64;43.33
76229;BME280;65021;53.174;18.160;2023-05-01T08:52:50;101613.38;;;14.71;44.03
76229;BME280;65021;53.174;18.160;2023-05-01T08:55:17;101611.92;;;14.81;43.20
76229;BME280;65021;53.174;18.160;2023-05-01T08:57:45;101611.40;;;14.90;43.70
76229;BME280;65021;53.174;18.160;2023-05-01T09:00:16;101607.84;;;14.98;42.86
76229;BME280;65021;53.174;18.160;2023-05-01T09:02:48;101603.34;;;15.07;42.02
76229;BME280;65021;53.174;18.160;2023-05-01T09:05:16;101601.01;;;15.12;42.29
76229;BME280;65021;53.174;18.160;2023-05-01T09:07:44;101590.88;;;15.16;42.70
76229;BME280;65021;53.174;18.160;2023-05-01T09:10:14;101595.89;;;15.21;42.70
76229;BME280;65021;53.174;18.160;2023-05-01T09:12:41;101590.20;;;15.30;42.30
76229;BME280;65021;53.174;18.160;2023-05-01T09:15:11;101588.08;;;15.34;40.50
76229;BME280;65021;53.174;18.160;2023-05-01T09:17:38;101588.55;;;15.28;41.37
76229;BME280;65021;53.174;18.160;2023-05-01T09:20:06;101579.30;;;15.28;40.34
76229;BME280;65021;53.174;18.160;2023-05-01T09:22:34;101584.49;;;15.33;41.13
76229;BME280;65021;53.174;18.160;2023-05-01T09:25:00;101578.02;;;15.39;40.84
76229;BME280;65021;53.174;18.160;2023-05-01T09:27:32;101575.70;;;15.44;40.76
76229;BME280;65021;53.174;18.160;2023-05-01T09:29:59;101578.16;;;15.52;41.14
76229;BME280;65021;53.174;18.160;2023-05-01T09:32:26;101571.08;;;15.58;40.74
76229;BME280;65021;53.174;18.160;2023-05-01T09:35:09;101572.41;;;15.61;39.87
76229;BME280;65021;53.174;18.160;2023-05-01T09:37:36;101568.66;;;15.57;39.43
76229;BME280;65021;53.174;18.160;2023-05-01T09:40:13;101564.12;;;15.54;39.61
76229;BME280;65021;53.174;18.160;2023-05-01T09:42:49;101556.93;;;15.57;40.04
76229;BME280;65021;53.174;18.160;2023-05-01T09:45:16;101552.35;;;15.57;39.44
76229;BME280;65021;53.174;18.160;2023-05-01T09:47:45;101545.41;;;15.58;39.86
76229;BME280;65021;53.174;18.160;2023-05-01T09:50:29;101538.65;;;15.64;39.62
76229;BME280;65021;53.174;18.160;2023-05-01T09:52:56;101533.76;;;15.72;38.75
76229;BME280;65021;53.174;18.160;2023-05-01T09:55:23;101537.65;;;15.83;39.19
76229;BME280;65021;53.174;18.160;2023-05-01T09:57:50;101532.31;;;15.92;38.97
76229;BME280;65021;53.174;18.160;2023-05-01T10:00:16;101528.11;;;15.93;38.94
76229;BME280;65021;53.174;18.160;2023-05-01T10:02:47;101520.67;;;15.95;37.62
76229;BME280;65021;53.174;18.160;2023-05-01T10:05:14;101519.98;;;15.98;39.03
76229;BME280;65021;53.174;18.160;2023-05-01T10:10:25;101522.44;;;16.11;38.20
76229;BME280;65021;53.174;18.160;2023-05-01T10:12:52;101516.23;;;16.13;37.74
76229;BME280;65021;53.174;18.160;2023-05-01T10:15:18;101514.29;;;16.11;37.44
76229;BME280;65021;53.174;18.160;2023-05-01T10:17:48;101518.73;;;16.06;36.88
76229;BME280;65021;53.174;18.160;2023-05-01T10:20:16;101518.22;;;15.96;37.74
76229;BME280;65021;53.174;18.160;2023-05-01T10:22:43;101518.12;;;16.02;37.66
76229;BME280;65021;53.174;18.160;2023-05-01T10:25:12;101514.73;;;16.11;38.16
76229;BME280;65021;53.174;18.160;2023-05-01T10:27:40;101507.26;;;16.25;37.99
76229;BME280;65021;53.174;18.160;2023-05-01T10:30:08;101507.98;;;16.30;37.19
76229;BME280;65021;53.174;18.160;2023-05-01T10:32:36;101506.21;;;16.33;37.16
76229;BME280;65021;53.174;18.160;2023-05-01T10:35:07;101504.34;;;16.38;37.31
76229;BME280;65021;53.174;18.160;2023-05-01T10:37:54;101502.68;;;16.46;37.33
76229;BME280;65021;53.174;18.160;2023-05-01T10:43:26;101502.60;;;16.44;35.39
76229;BME280;65021;53.174;18.160;2023-05-01T10:51:13;101494.72;;;16.52;36.80
76229;BME280;65021;53.174;18.160;2023-05-01T10:53:41;101487.14;;;16.57;35.42
76229;BME280;65021;53.174;18.160;2023-05-01T11:03:59;101472.64;;;16.38;35.41
76229;BME280;65021;53.174;18.160;2023-05-01T11:06:26;101471.46;;;16.44;35.68
76229;BME280;65021;53.174;18.160;2023-05-01T11:08:53;101467.95;;;16.47;35.78
76229;BME280;65021;53.174;18.160;2023-05-01T11:13:59;101456.61;;;16.41;34.80
76229;BME280;65021;53.174;18.160;2023-05-01T11:19:00;101452.63;;;16.53;36.10
76229;BME280;65021;53.174;18.160;2023-05-01T11:21:34;101442.69;;;16.59;35.97
76229;BME280;65021;53.174;18.160;2023-05-01T11:24:02;101445.95;;;16.67;35.70
76229;BME280;65021;53.174;18.160;2023-05-01T11:26:29;101445.91;;;16.84;35.36
76229;BME280;65021;53.174;18.160;2023-05-01T11:28:58;101449.91;;;16.95;35.51
76229;BME280;65021;53.174;18.160;2023-05-01T11:31:25;101446.27;;;16.99;35.13
76229;BME280;65021;53.174;18.160;2023-05-01T11:33:57;101437.96;;;17.00;34.13
76229;BME280;65021;53.174;18.160;2023-05-01T11:36:25;101435.64;;;16.96;34.53
76229;BME280;65021;53.174;18.160;2023-05-01T11:38:56;101431.05;;;16.97;34.73
76229;BME280;65021;53.174;18.160;2023-05-01T11:41:25;101429.84;;;17.04;34.28
76229;BME280;65021;53.174;18.160;2023-05-01T11:43:54;101433.65;;;17.12;32.97
76229;BME280;65021;53.174;18.160;2023-05-01T11:46:24;101431.65;;;17.18;33.26
76229;BME280;65021;53.174;18.160;2023-05-01T11:48:56;101421.85;;;17.23;32.89
76229;BME280;65021;53.174;18.160;2023-05-01T11:51:24;101420.73;;;17.24;33.04
76229;BME280;65021;53.174;18.160;2023-05-01T11:56:28;101414.19;;;17.35;33.69
76229;BME280;65021;53.174;18.160;2023-05-01T11:58:57;101409.31;;;17.39;34.02
76229;BME280;65021;53.174;18.160;2023-05-01T12:01:35;101406.42;;;17.45;34.15
76229;BME280;65021;53.174;18.160;2023-05-01T12:04:05;101402.52;;;17.53;33.13
76229;BME280;65021;53.174;18.160;2023-05-01T12:06:44;101401.21;;;17.51;32.80
76229;BME280;65021;53.174;18.160;2023-05-01T12:09:18;101401.70;;;17.49;33.16
76229;BME280;65021;53.174;18.160;2023-05-01T12:11:47;101386.45;;;17.53;32.98
76229;BME280;65021;53.174;18.160;2023-05-01T12:14:14;101385.17;;;17.51;33.32
76229;BME280;65021;53.174;18.160;2023-05-01T12:16:42;101384.38;;;17.55;33.25
76229;BME280;65021;53.174;18.160;2023-05-01T12:19:12;101385.39;;;17.57;32.77
76229;BME280;65021;53.174;18.160;2023-05-01T12:21:39;101380.23;;;17.60;32.91
76229;BME280;65021;53.174;18.160;2023-05-01T12:26:33;101379.43;;;17.45;33.28
76229;BME280;65021;53.174;18.160;2023-05-01T12:29:04;101373.09;;;17.47;33.41
76229;BME280;65021;53.174;18.160;2023-05-01T12:31:32;101360.88;;;17.55;33.52
76229;BME280;65021;53.174;18.160;2023-05-01T12:36:30;101359.78;;;17.71;32.83
76229;BME280;65021;53.174;18.160;2023-05-01T12:41:38;101349.26;;;17.77;32.17
76229;BME280;65021;53.174;18.160;2023-05-01T12:44:17;101332.80;;;17.77;31.92
76229;BME280;65021;53.174;18.160;2023-05-01T12:46:51;101333.98;;;17.75;32.36
76229;BME280;65021;53.174;18.160;2023-05-01T12:49:19;101330.94;;;17.71;32.05
76229;BME280;65021;53.174;18.160;2023-05-01T12:51:50;101335.02;;;17.58;32.54
76229;BME280;65021;53.174;18.160;2023-05-01T12:54:27;101332.54;;;17.58;32.69
76229;BME280;65021;53.174;18.160;2023-05-01T12:57:14;101334.20;;;17.52;32.92
76229;BME280;65021;53.174;18.160;2023-05-01T12:59:43;101331.20;;;17.46;32.63
76229;BME280;65021;53.174;18.160;2023-05-01T13:02:12;101324.84;;;17.42;32.10
76229;BME280;65021;53.174;18.160;2023-05-01T13:04:42;101319.58;;;17.48;32.53
76229;BME280;65021;53.174;18.160;2023-05-01T13:07:16;101309.95;;;17.66;32.97
76229;BME280;65021;53.174;18.160;2023-05-01T13:09:53;101308.45;;;17.88;33.00
76229;BME280;65021;53.174;18.160;2023-05-01T13:12:20;101299.54;;;18.06;32.84
76229;BME280;65021;53.174;18.160;2023-05-01T13:14:47;101299.48;;;18.10;32.18
76229;BME280;65021;53.174;18.160;2023-05-01T13:19:57;101282.88;;;18.17;32.71
76229;BME280;65021;53.174;18.160;2023-05-01T13:22:35;101283.04;;;18.16;33.00
76229;BME280;65021;53.174;18.160;2023-05-01T13:25:13;101275.33;;;18.16;32.96
76229;BME280;65021;53.174;18.160;2023-05-01T13:27:40;101274.13;;;18.23;32.83
76229;BME280;65021;53.174;18.160;2023-05-01T13:30:08;101267.27;;;18.26;32.88
76229;BME280;65021;53.174;18.160;2023-05-01T13:32:39;101269.97;;;18.30;32.69
76229;BME280;65021;53.174;18.160;2023-05-01T13:35:07;101262.41;;;18.30;32.53
76229;BME280;65021;53.174;18.160;2023-05-01T13:37:38;101261.27;;;18.33;32.22
76229;BME280;65021;53.174;18.160;2023-05-01T13:40:05;101259.20;;;18.33;32.58
76229;BME280;65021;53.174;18.160;2023-05-01T13:42:32;101260.59;;;18.34;32.64